createdAt,value
2018-06-25T00:01:30.949Z,14.58
2018-06-25T00:03:58.916Z,14.61
2018-06-25T00:06:26.937Z,14.77
2018-06-25T00:08:54.974Z,14.68
2018-06-25T00:11:23.065Z,14.65
2018-06-25T00:13:51.073Z,14.60
2018-06-25T00:16:19.093Z,14.64
2018-06-25T00:18:47.088Z,14.84
2018-06-25T00:21:15.082Z,14.89
2018-06-25T00:23:43.085Z,15.00
2018-06-25T00:26:11.124Z,14.95
2018-06-25T00:28:39.176Z,14.99
2018-06-25T00:31:07.197Z,14.94
2018-06-25T00:33:35.187Z,14.74
2018-06-25T00:36:03.188Z,14.82
2018-06-25T00:38:31.194Z,14.90
2018-06-25T00:40:59.184Z,14.99
2018-06-25T00:43:27.196Z,14.93
2018-06-25T00:45:55.197Z,14.79
2018-06-25T00:48:23.196Z,14.76
2018-06-25T00:50:51.176Z,14.68
2018-06-25T00:53:19.177Z,14.69
2018-06-25T00:55:47.223Z,14.69
2018-06-25T00:58:15.266Z,14.70
2018-06-25T01:00:43.236Z,14.55
2018-06-25T01:03:11.256Z,14.65
2018-06-25T01:05:39.258Z,14.83
2018-06-25T01:08:07.305Z,14.86
2018-06-25T01:10:35.296Z,14.92
2018-06-25T01:13:03.313Z,14.96
2018-06-25T01:15:31.308Z,14.94
2018-06-25T01:17:59.308Z,15.03
2018-06-25T01:20:27.968Z,15.09
2018-06-25T01:22:55.965Z,15.05
2018-06-25T01:25:23.952Z,15.02
2018-06-25T01:27:51.968Z,14.97
2018-06-25T01:30:19.965Z,15.10
2018-06-25T01:32:47.980Z,15.19
2018-06-25T01:35:15.988Z,15.22
2018-06-25T01:37:44.017Z,15.15
2018-06-25T01:40:12.016Z,15.19
2018-06-25T01:42:40.001Z,15.24
2018-06-25T01:45:07.985Z,15.31
2018-06-25T01:47:35.968Z,15.29
2018-06-25T01:50:03.989Z,15.35
2018-06-25T01:52:31.992Z,15.19
2018-06-25T01:55:00.052Z,15.26
2018-06-25T01:57:28.057Z,15.13
2018-06-25T01:59:56.064Z,15.02
2018-06-25T02:02:24.044Z,14.98
2018-06-25T02:04:52.049Z,14.98
2018-06-25T02:07:20.080Z,14.90
2018-06-25T02:09:48.111Z,14.90
2018-06-25T02:12:16.102Z,14.83
2018-06-25T02:14:44.313Z,14.79
2018-06-25T02:17:12.338Z,14.80
2018-06-25T02:19:40.329Z,14.81
2018-06-25T02:22:08.312Z,14.78
2018-06-25T02:24:36.313Z,14.66
2018-06-25T02:27:04.336Z,14.64
2018-06-25T02:29:33.168Z,14.61
2018-06-25T02:32:01.183Z,14.71
2018-06-25T02:34:29.249Z,14.76
2018-06-25T02:36:57.296Z,14.66
2018-06-25T02:39:25.317Z,14.77
2018-06-25T02:41:53.310Z,14.77
2018-06-25T02:44:21.349Z,14.84
2018-06-25T02:46:49.372Z,14.78
2018-06-25T02:49:17.404Z,14.78
2018-06-25T02:51:45.381Z,14.79
2018-06-25T02:54:13.380Z,14.65
2018-06-25T02:56:41.387Z,14.76
2018-06-25T02:59:09.529Z,14.81
2018-06-25T03:01:37.470Z,14.96
2018-06-25T03:04:05.598Z,14.97
2018-06-25T03:06:33.593Z,15.03
2018-06-25T03:09:01.588Z,15.05
2018-06-25T03:11:29.577Z,14.93
2018-06-25T03:13:57.599Z,15.00
2018-06-25T03:16:25.665Z,14.99
2018-06-25T03:21:33.124Z,14.88
2018-06-25T03:24:01.129Z,14.84
2018-06-25T03:26:29.352Z,14.74
2018-06-25T03:28:57.381Z,14.90
2018-06-25T03:31:25.388Z,14.93
2018-06-25T03:33:53.413Z,14.99
2018-06-25T03:36:21.443Z,14.92
2018-06-25T03:38:49.443Z,15.00
2018-06-25T03:41:17.430Z,14.95
2018-06-25T03:43:45.481Z,15.05
2018-06-25T03:46:13.489Z,14.98
2018-06-25T03:48:41.534Z,15.11
2018-06-25T03:51:09.546Z,15.15
2018-06-25T03:53:37.552Z,15.22
2018-06-25T03:56:05.607Z,15.22
2018-06-25T03:58:33.621Z,15.22
2018-06-25T04:01:01.676Z,15.12
2018-06-25T04:03:29.656Z,15.34
2018-06-25T04:05:57.890Z,15.34
2018-06-25T04:08:25.932Z,15.49
2018-06-25T04:10:53.965Z,15.59
2018-06-25T04:13:22.058Z,15.55
2018-06-25T04:15:50.062Z,15.67
2018-06-25T04:18:18.212Z,15.76
2018-06-25T04:20:46.301Z,15.78
2018-06-25T04:23:14.278Z,15.89
2018-06-25T04:25:42.296Z,15.73
2018-06-25T04:28:10.291Z,15.68
2018-06-25T04:30:38.319Z,15.61
2018-06-25T04:33:06.300Z,15.73
2018-06-25T04:35:34.308Z,15.78
2018-06-25T04:38:02.461Z,15.86
2018-06-25T04:40:30.485Z,15.66
2018-06-25T04:42:58.473Z,15.65
2018-06-25T04:45:26.501Z,15.82
2018-06-25T04:47:54.525Z,15.88
2018-06-25T04:50:22.543Z,16.01
2018-06-25T04:52:50.546Z,16.11
2018-06-25T04:55:18.548Z,16.08
2018-06-25T04:57:46.532Z,16.34
2018-06-25T05:00:14.572Z,16.26
2018-06-25T05:02:42.619Z,16.42
2018-06-25T05:05:10.621Z,16.34
2018-06-25T05:07:38.593Z,16.42
2018-06-25T05:10:06.604Z,16.61
2018-06-25T05:12:34.581Z,16.81
2018-06-25T05:15:02.688Z,16.78
2018-06-25T05:17:30.733Z,17.01
2018-06-25T05:19:58.804Z,16.95
2018-06-25T05:22:26.839Z,17.13
2018-06-25T05:24:54.921Z,16.78
2018-06-25T05:27:23.030Z,17.14
2018-06-25T05:29:51.195Z,17.37
2018-06-25T05:32:19.225Z,17.38
2018-06-25T05:34:47.224Z,17.38
2018-06-25T05:37:15.245Z,17.18
2018-06-25T05:39:43.286Z,17.17
2018-06-25T05:42:15.464Z,17.43
2018-06-25T05:44:43.501Z,17.49
2018-06-25T05:47:11.530Z,17.50
2018-06-25T05:49:39.539Z,17.45
2018-06-25T05:52:07.716Z,17.32
2018-06-25T05:54:35.764Z,17.42
2018-06-25T05:57:03.755Z,17.36
2018-06-25T05:59:31.766Z,17.41
2018-06-25T06:01:59.773Z,17.48
2018-06-25T06:04:27.794Z,17.34
2018-06-25T06:06:55.798Z,17.58
2018-06-25T06:09:23.809Z,17.45
2018-06-25T06:11:51.844Z,17.38
2018-06-25T06:14:19.837Z,17.50
2018-06-25T06:16:47.841Z,17.38
2018-06-25T06:19:15.824Z,17.34
2018-06-25T06:21:43.826Z,17.28
2018-06-25T06:24:11.826Z,17.40
2018-06-25T06:26:39.845Z,17.57
2018-06-25T06:29:07.864Z,17.64
2018-06-25T06:31:35.916Z,17.68
2018-06-25T06:34:03.942Z,17.67
2018-06-25T06:36:31.970Z,17.72
2018-06-25T06:38:59.975Z,17.74
2018-06-25T06:41:27.993Z,17.62
2018-06-25T06:43:56.022Z,17.70
2018-06-25T06:46:24.052Z,17.46
2018-06-25T06:48:52.040Z,17.71
2018-06-25T06:51:20.045Z,17.61
2018-06-25T06:53:48.030Z,17.84
2018-06-25T06:56:16.077Z,17.74
2018-06-25T06:58:44.098Z,17.51
2018-06-25T07:01:12.114Z,17.62
2018-06-25T07:03:40.101Z,17.60
2018-06-25T07:06:08.147Z,17.70
2018-06-25T07:08:36.148Z,17.83
2018-06-25T07:11:04.469Z,17.76
2018-06-25T07:13:33.761Z,17.64
2018-06-25T07:16:01.834Z,17.78
2018-06-25T07:18:29.821Z,18.07
2018-06-25T07:20:57.804Z,18.19
2018-06-25T07:23:25.794Z,18.23
2018-06-25T07:25:53.805Z,18.43
2018-06-25T07:28:21.965Z,18.34
2018-06-25T07:30:50.020Z,18.44
2018-06-25T07:33:18.009Z,18.57
2018-06-25T07:35:46.013Z,18.59
2018-06-25T07:38:14.051Z,18.60
2018-06-25T07:40:42.045Z,18.88
2018-06-25T07:43:10.402Z,19.18
2018-06-25T07:45:39.070Z,19.56
2018-06-25T07:48:07.077Z,19.59
2018-06-25T07:50:35.065Z,19.22
2018-06-25T07:53:03.112Z,19.16
2018-06-25T07:55:31.105Z,19.21
2018-06-25T07:57:59.109Z,19.16
2018-06-25T08:00:27.090Z,19.01
2018-06-25T08:02:55.089Z,18.89
2018-06-25T08:05:23.078Z,19.08
2018-06-25T08:07:51.131Z,19.26
2018-06-25T08:10:19.210Z,19.47
2018-06-25T08:12:47.930Z,19.59
2018-06-25T08:15:15.940Z,19.52
2018-06-25T08:17:43.965Z,19.43
2018-06-25T08:20:12.105Z,19.35
2018-06-25T08:22:40.150Z,19.20
2018-06-25T08:25:08.147Z,19.31
2018-06-25T08:27:36.179Z,19.40
2018-06-25T08:30:04.807Z,19.37
2018-06-25T08:32:32.801Z,19.15
2018-06-25T08:35:00.797Z,18.91
2018-06-25T08:37:29.372Z,18.76
2018-06-25T08:39:57.385Z,18.78
2018-06-25T08:42:25.380Z,18.87
2018-06-25T08:44:53.388Z,18.72
2018-06-25T08:47:21.404Z,18.47
2018-06-25T08:49:49.412Z,18.32
2018-06-25T08:52:17.419Z,18.41
2018-06-25T08:54:45.437Z,18.38
2018-06-25T08:57:13.441Z,18.38
2018-06-25T08:59:41.424Z,18.30
2018-06-25T09:02:09.416Z,18.35
2018-06-25T09:04:37.433Z,18.43
2018-06-25T09:07:05.475Z,18.45
2018-06-25T09:09:33.545Z,18.26
2018-06-25T09:12:01.478Z,18.20
2018-06-25T09:14:29.488Z,18.35
2018-06-25T09:16:57.600Z,18.29
2018-06-25T09:19:25.606Z,18.63
2018-06-25T09:21:53.667Z,18.74
2018-06-25T09:24:21.666Z,18.81
2018-06-25T09:26:49.661Z,18.78
2018-06-25T09:29:17.665Z,18.89
2018-06-25T09:31:45.753Z,19.03
2018-06-25T09:34:19.219Z,19.09
2018-06-25T09:36:47.207Z,19.05
2018-06-25T09:39:15.298Z,19.10
2018-06-25T09:41:43.613Z,19.26
2018-06-25T09:44:11.748Z,19.61
2018-06-25T09:46:40.037Z,19.67
2018-06-25T09:49:08.049Z,19.57
2018-06-25T09:51:36.061Z,19.76
2018-06-25T09:54:04.081Z,19.83
2018-06-25T09:56:32.089Z,19.27
2018-06-25T09:59:00.106Z,19.30
2018-06-25T10:01:28.152Z,18.96
2018-06-25T10:03:56.151Z,18.84
2018-06-25T10:06:24.145Z,18.62
2018-06-25T10:08:52.175Z,18.63
2018-06-25T10:11:20.189Z,18.72
2018-06-25T10:13:48.216Z,18.51
2018-06-25T10:16:16.209Z,18.46
2018-06-25T10:18:44.249Z,18.32
2018-06-25T10:21:12.487Z,18.37
2018-06-25T10:23:40.444Z,18.54
2018-06-25T10:26:08.761Z,18.67
2018-06-25T10:28:37.295Z,18.89
2018-06-25T10:31:05.309Z,18.98
2018-06-25T10:33:33.349Z,19.23
2018-06-25T10:36:01.344Z,19.49
2018-06-25T10:38:29.385Z,19.67
2018-06-25T10:40:57.409Z,19.59
2018-06-25T10:43:25.453Z,19.50
2018-06-25T10:45:53.451Z,18.96
2018-06-25T10:48:21.432Z,18.99
2018-06-25T10:50:49.446Z,18.87
2018-06-25T10:53:17.477Z,18.85
2018-06-25T10:55:45.493Z,18.75
2018-06-25T10:58:13.568Z,18.77
2018-06-25T11:00:41.673Z,18.71
2018-06-25T11:03:09.692Z,18.64
2018-06-25T11:05:37.720Z,18.88
2018-06-25T11:08:05.795Z,19.01
2018-06-25T11:10:33.826Z,19.41
2018-06-25T11:13:01.897Z,19.50
2018-06-25T11:15:29.857Z,19.52
2018-06-25T11:17:57.864Z,19.51
2018-06-25T11:20:25.941Z,19.74
2018-06-25T11:22:53.936Z,19.43
2018-06-25T11:25:21.960Z,19.30
2018-06-25T11:27:50.024Z,19.31
2018-06-25T11:30:18.012Z,19.12
2018-06-25T11:32:47.135Z,19.38
2018-06-25T11:35:15.151Z,19.68
2018-06-25T11:37:43.256Z,19.75
2018-06-25T11:40:11.269Z,19.88
2018-06-25T11:42:39.304Z,20.05
2018-06-25T11:45:07.404Z,19.62
2018-06-25T11:47:35.440Z,19.73
2018-06-25T11:50:03.473Z,19.80
2018-06-25T11:52:31.497Z,19.89
2018-06-25T11:54:59.529Z,19.91
2018-06-25T11:57:27.536Z,20.11
2018-06-25T11:59:55.575Z,20.32
2018-06-25T12:02:23.582Z,20.27
2018-06-25T12:04:51.590Z,20.16
2018-06-25T12:07:19.756Z,20.34
2018-06-25T12:09:47.832Z,20.34
2018-06-25T12:12:15.854Z,19.99
2018-06-25T12:14:43.941Z,19.97
2018-06-25T12:17:12.043Z,19.79
2018-06-25T12:19:40.468Z,19.81
2018-06-25T12:22:08.966Z,19.93
2018-06-25T12:24:37.669Z,20.11
2018-06-25T12:27:05.796Z,19.96
2018-06-25T12:29:33.891Z,20.15
2018-06-25T12:32:02.075Z,20.10
2018-06-25T12:34:30.003Z,20.06
2018-06-25T12:36:58.140Z,20.39
2018-06-25T12:39:26.200Z,20.39
2018-06-25T12:41:54.299Z,20.50
2018-06-25T12:44:22.309Z,20.41
2018-06-25T12:46:50.336Z,20.58
2018-06-25T12:49:18.956Z,20.99
2018-06-25T12:51:46.978Z,21.30
2018-06-25T12:54:14.991Z,21.23
2018-06-25T12:56:43.052Z,21.41
2018-06-25T12:59:11.068Z,21.47
2018-06-25T13:01:39.080Z,21.32
2018-06-25T13:04:07.076Z,21.41
2018-06-25T13:06:35.082Z,21.54
2018-06-25T13:09:03.160Z,21.82
2018-06-25T13:11:31.362Z,21.85
2018-06-25T13:13:59.365Z,21.69
2018-06-25T13:16:27.376Z,21.76
2018-06-25T13:18:55.596Z,21.81
2018-06-25T13:21:24.016Z,21.92
2018-06-25T13:23:52.035Z,21.68
2018-06-25T13:26:20.118Z,21.68
2018-06-25T13:28:48.124Z,21.59
2018-06-25T13:31:16.238Z,21.48
2018-06-25T13:33:44.130Z,21.64
2018-06-25T13:36:12.133Z,21.58
2018-06-25T13:38:40.140Z,21.78
2018-06-25T13:41:08.153Z,22.06
2018-06-25T13:43:36.143Z,22.39
2018-06-25T13:46:04.212Z,22.71
2018-06-25T13:48:32.256Z,22.77
2018-06-25T13:51:00.265Z,22.79
2018-06-25T13:53:28.276Z,23.05
2018-06-25T13:55:56.285Z,23.03
2018-06-25T13:58:24.287Z,22.90
2018-06-25T14:00:52.364Z,22.43
2018-06-25T14:03:20.389Z,22.45
2018-06-25T14:05:48.505Z,22.74
2018-06-25T14:08:16.505Z,22.61
2018-06-25T14:10:44.474Z,22.67
2018-06-25T14:13:12.536Z,22.21
2018-06-25T14:15:40.560Z,22.14
2018-06-25T14:18:08.731Z,22.11
2018-06-25T14:20:36.727Z,22.40
2018-06-25T14:23:04.794Z,22.71
2018-06-25T14:25:38.103Z,23.15
2018-06-25T14:28:11.695Z,23.53
2018-06-25T14:30:45.066Z,23.98
2018-06-25T14:33:13.073Z,24.28
2018-06-25T14:35:41.068Z,24.35
2018-06-25T14:38:09.100Z,24.26
2018-06-25T14:40:37.159Z,24.28
2018-06-25T14:43:05.241Z,23.87
2018-06-25T14:45:33.241Z,23.88
2018-06-25T14:48:01.319Z,23.53
2018-06-25T14:50:29.300Z,23.67
2018-06-25T14:52:57.336Z,23.87
2018-06-25T14:55:25.399Z,23.79
2018-06-25T14:57:53.458Z,23.66
2018-06-25T15:00:22.037Z,23.65
2018-06-25T15:02:51.233Z,23.79
2018-06-25T15:05:19.264Z,23.66
2018-06-25T15:07:47.411Z,23.04
2018-06-25T15:10:15.438Z,22.86
2018-06-25T15:12:43.497Z,22.87
2018-06-25T15:15:11.505Z,22.68
2018-06-25T15:17:39.558Z,22.74
2018-06-25T15:20:07.617Z,22.92
2018-06-25T15:22:35.692Z,23.09
2018-06-25T15:25:03.716Z,23.46
2018-06-25T15:27:31.708Z,23.65
2018-06-25T15:29:59.800Z,23.43
2018-06-25T15:32:30.475Z,23.22
2018-06-25T15:34:58.649Z,23.06
2018-06-25T15:37:26.809Z,22.96
2018-06-25T15:39:54.822Z,23.02
2018-06-25T15:42:22.829Z,23.13
2018-06-25T15:44:50.879Z,23.19
2018-06-25T15:47:18.993Z,23.18
2018-06-25T15:49:47.037Z,22.99
2018-06-25T15:52:15.137Z,23.11
2018-06-25T15:54:43.192Z,23.14
2018-06-25T15:57:11.217Z,23.06
2018-06-25T15:59:39.281Z,23.20
2018-06-25T16:02:07.279Z,23.02
2018-06-25T16:04:35.285Z,22.28
2018-06-25T16:07:03.648Z,22.20
2018-06-25T16:09:31.877Z,22.08
2018-06-25T16:11:59.875Z,22.07
2018-06-25T16:14:28.277Z,22.11
2018-06-25T16:16:56.486Z,21.82
2018-06-25T16:19:24.527Z,21.59
2018-06-25T16:21:52.612Z,21.35
2018-06-25T16:24:20.658Z,21.07
2018-06-25T16:26:48.776Z,20.95
2018-06-25T16:29:16.765Z,21.04
2018-06-25T16:31:44.771Z,20.97
2018-06-25T16:34:12.951Z,20.94
2018-06-25T16:36:41.046Z,20.95
2018-06-25T16:39:11.168Z,20.73
2018-06-25T16:41:39.376Z,20.84
2018-06-25T16:44:07.613Z,20.82
2018-06-25T16:46:35.920Z,20.56
2018-06-25T16:49:04.083Z,20.11
2018-06-25T16:51:32.231Z,20.21
2018-06-25T16:54:00.244Z,20.24
2018-06-25T16:56:28.284Z,20.22
2018-06-25T16:58:56.356Z,20.13
2018-06-25T17:01:24.356Z,19.72
2018-06-25T17:03:52.336Z,19.44
2018-06-25T17:06:20.329Z,19.37
2018-06-25T17:08:48.367Z,19.34
2018-06-25T17:11:16.690Z,19.12
2018-06-25T17:13:44.685Z,19.21
2018-06-25T17:16:12.741Z,19.34
2018-06-25T17:18:40.768Z,19.51
2018-06-25T17:21:08.933Z,19.46
2018-06-25T17:23:36.955Z,19.12
2018-06-25T17:26:05.276Z,19.07
2018-06-25T17:28:33.302Z,19.07
2018-06-25T17:31:01.288Z,19.20
2018-06-25T17:33:29.276Z,19.06
2018-06-25T17:35:57.303Z,18.99
2018-06-25T17:38:25.280Z,18.97
2018-06-25T17:40:53.253Z,18.92
2018-06-25T17:43:22.340Z,18.80
2018-06-25T17:45:50.327Z,18.38
2018-06-25T17:48:18.426Z,18.41
2018-06-25T17:50:46.493Z,18.16
2018-06-25T17:53:14.521Z,18.03
2018-06-25T17:55:42.649Z,17.90
2018-06-25T17:58:10.686Z,17.83
2018-06-25T18:00:38.707Z,17.69
2018-06-25T18:03:06.737Z,17.72
2018-06-25T18:05:34.765Z,17.83
2018-06-25T18:08:02.876Z,17.81
2018-06-25T18:10:30.948Z,17.91
2018-06-25T18:12:59.617Z,17.86
2018-06-25T18:15:27.685Z,17.82
2018-06-25T18:17:55.716Z,17.93
2018-06-25T18:20:23.749Z,17.82
2018-06-25T18:22:51.779Z,17.90
2018-06-25T18:25:19.907Z,17.71
2018-06-25T18:27:47.974Z,17.49
2018-06-25T18:30:16.026Z,17.64
2018-06-25T18:32:44.048Z,17.45
2018-06-25T18:35:12.038Z,17.36
2018-06-25T18:37:40.115Z,17.34
2018-06-25T18:40:08.581Z,17.39
2018-06-25T18:42:36.648Z,17.45
2018-06-25T18:45:04.953Z,17.37
2018-06-25T18:47:33.040Z,17.18
2018-06-25T18:50:01.165Z,17.27
2018-06-25T18:52:29.165Z,17.15
2018-06-25T18:54:57.165Z,16.86
2018-06-25T18:57:25.261Z,16.70
2018-06-25T18:59:53.442Z,16.60
2018-06-25T19:02:21.512Z,16.76
2018-06-25T19:04:49.585Z,16.86
2018-06-25T19:07:17.697Z,16.81
2018-06-25T19:09:45.748Z,16.82
2018-06-25T19:12:13.845Z,16.76
2018-06-25T19:14:41.997Z,16.63
2018-06-25T19:17:09.997Z,16.68
2018-06-25T19:19:38.006Z,16.69
2018-06-25T19:22:06.236Z,16.47
2018-06-25T19:24:34.253Z,16.39
2018-06-25T19:27:02.318Z,16.49
2018-06-25T19:29:30.341Z,16.57
2018-06-25T19:31:58.325Z,16.74
2018-06-25T19:34:26.318Z,16.72
2018-06-25T19:36:54.397Z,16.77
2018-06-25T19:39:22.417Z,16.70
2018-06-25T19:41:50.417Z,16.49
2018-06-25T19:44:18.426Z,16.49
2018-06-25T19:46:46.429Z,16.43
2018-06-25T19:49:14.459Z,16.20
2018-06-25T19:51:42.534Z,16.17
2018-06-25T19:54:10.609Z,16.16
2018-06-25T19:56:39.711Z,16.13
2018-06-25T19:59:07.709Z,16.05
2018-06-25T20:01:35.827Z,16.02
2018-06-25T20:04:03.818Z,16.17
2018-06-25T20:06:31.833Z,16.18
2018-06-25T20:08:59.933Z,16.12
2018-06-25T20:11:28.005Z,16.05
2018-06-25T20:13:56.009Z,15.82
2018-06-25T20:16:24.009Z,15.55
2018-06-25T20:18:52.156Z,15.51
2018-06-25T20:21:20.160Z,15.51
2018-06-25T20:23:48.155Z,15.33
2018-06-25T20:26:16.220Z,15.46
2018-06-25T20:28:44.229Z,15.43
2018-06-25T20:31:12.270Z,15.51
2018-06-25T20:33:40.441Z,15.66
2018-06-25T20:36:08.452Z,15.59
2018-06-25T20:38:36.455Z,15.62
2018-06-25T20:41:04.496Z,15.66
2018-06-25T20:43:32.497Z,15.77
2018-06-25T20:46:00.639Z,15.49
2018-06-25T20:48:28.668Z,15.56
2018-06-25T20:50:56.737Z,15.50
2018-06-25T20:53:24.934Z,15.56
2018-06-25T20:55:52.821Z,15.55
2018-06-25T20:58:20.858Z,15.53
2018-06-25T21:00:48.912Z,15.44
2018-06-25T21:03:16.960Z,15.50
2018-06-25T21:05:44.972Z,15.61
2018-06-25T21:08:13.005Z,15.45
2018-06-25T21:10:41.005Z,15.32
2018-06-25T21:13:08.993Z,15.28
2018-06-25T21:15:36.981Z,15.16
2018-06-25T21:18:04.972Z,15.13
2018-06-25T21:20:32.994Z,15.24
2018-06-25T21:23:00.993Z,15.23
2018-06-25T21:25:29.154Z,15.24
2018-06-25T21:27:57.104Z,15.25
2018-06-25T21:30:25.306Z,15.23
2018-06-25T21:32:53.288Z,15.26
2018-06-25T21:35:21.288Z,15.34
2018-06-25T21:37:49.264Z,15.48
2018-06-25T21:40:17.267Z,15.45
2018-06-25T21:42:45.258Z,15.45
2018-06-25T21:45:13.253Z,15.56
2018-06-25T21:47:41.345Z,15.54
2018-06-25T21:50:09.350Z,15.30
2018-06-25T21:52:37.321Z,15.33
2018-06-25T21:55:05.534Z,15.19
2018-06-25T21:57:33.597Z,15.12
2018-06-25T22:00:01.604Z,15.20
2018-06-25T22:02:29.692Z,15.04
2018-06-25T22:04:57.714Z,15.19
2018-06-25T22:07:25.711Z,15.02
2018-06-25T22:09:53.713Z,14.93
2018-06-25T22:12:21.734Z,15.08
2018-06-25T22:14:49.717Z,15.06
2018-06-25T22:17:17.704Z,14.99
2018-06-25T22:19:45.792Z,15.05
2018-06-25T22:22:13.796Z,15.23
2018-06-25T22:24:41.795Z,15.08
2018-06-25T22:27:09.862Z,15.17
2018-06-25T22:29:37.867Z,15.27
2018-06-25T22:32:05.860Z,15.28
2018-06-25T22:34:33.954Z,15.38
2018-06-25T22:37:02.996Z,15.46
2018-06-25T22:39:31.018Z,15.30
2018-06-25T22:41:59.056Z,15.37
2018-06-25T22:44:27.067Z,15.40
2018-06-25T22:46:55.608Z,15.34
2018-06-25T22:49:23.603Z,15.51
2018-06-25T22:51:51.577Z,15.64
2018-06-25T22:54:19.577Z,15.59
2018-06-25T22:56:48.624Z,15.66
2018-06-25T22:59:16.632Z,15.74
2018-06-25T23:01:44.650Z,15.61
2018-06-25T23:04:12.635Z,15.50
2018-06-25T23:06:40.638Z,15.57
2018-06-25T23:09:09.829Z,15.31
2018-06-25T23:11:37.856Z,15.26
2018-06-25T23:14:05.833Z,15.35
2018-06-25T23:16:33.893Z,15.26
2018-06-25T23:19:01.924Z,15.22
2018-06-25T23:21:29.949Z,15.21
2018-06-25T23:23:57.952Z,15.27
2018-06-25T23:26:25.973Z,15.26
2018-06-25T23:28:54.076Z,15.40
2018-06-25T23:31:22.097Z,15.31
2018-06-25T23:33:50.107Z,15.22
2018-06-25T23:36:18.114Z,15.47
2018-06-25T23:38:46.197Z,15.28
2018-06-25T23:41:14.432Z,15.24
2018-06-25T23:43:42.460Z,15.14
2018-06-25T23:46:10.540Z,15.19
2018-06-25T23:48:38.587Z,15.23
2018-06-25T23:51:06.621Z,15.18
2018-06-25T23:53:34.616Z,15.28
2018-06-25T23:56:02.625Z,15.30
2018-06-25T23:58:30.724Z,15.24
